sensor_id;sensor_type;location;lat;lon;timestamp;P1;durP1;ratioP1;P2;durP2;ratioP2
18596;SDS011;9428;50.950;6.912;2022-08-06T00:01:45;2.67;;;1.20;;
18596;SDS011;9428;50.950;6.912;2022-08-06T00:04:32;5.25;;;1.67;;
18596;SDS011;9428;50.950;6.912;2022-08-06T00:07:19;4.55;;;1.70;;
18596;SDS011;9428;50.950;6.912;2022-08-06T00:10:07;3.47;;;1.17;;
18596;SDS011;9428;50.950;6.912;2022-08-06T00:12:55;3.70;;;1.27;;
18596;SDS011;9428;50.950;6.912;2022-08-06T00:15:42;4.55;;;1.52;;
18596;SDS011;9428;50.950;6.912;2022-08-06T00:18:31;2.65;;;1.70;;
18596;SDS011;9428;50.950;6.912;2022-08-06T00:21:18;3.08;;;1.40;;
18596;SDS011;9428;50.950;6.912;2022-08-06T00:24:06;3.33;;;1.70;;
18596;SDS011;9428;50.950;6.912;2022-08-06T00:26:53;4.30;;;1.85;;
18596;SDS011;9428;50.950;6.912;2022-08-06T00:29:40;1.45;;;1.05;;
18596;SDS011;9428;50.950;6.912;2022-08-06T00:32:27;4.50;;;1.50;;
18596;SDS011;9428;50.950;6.912;2022-08-06T00:35:16;7.53;;;1.67;;
18596;SDS011;9428;50.950;6.912;2022-08-06T00:38:03;4.85;;;1.30;;
18596;SDS011;9428;50.950;6.912;2022-08-06T00:40:51;6.28;;;1.60;;
18596;SDS011;9428;50.950;6.912;2022-08-06T00:43:39;3.00;;;1.50;;
18596;SDS011;9428;50.950;6.912;2022-08-06T00:46:28;2.28;;;1.50;;
18596;SDS011;9428;50.950;6.912;2022-08-06T00:49:15;2.97;;;1.52;;
18596;SDS011;9428;50.950;6.912;2022-08-06T00:52:04;2.33;;;1.20;;
18596;SDS011;9428;50.950;6.912;2022-08-06T00:54:51;6.65;;;1.40;;
18596;SDS011;9428;50.950;6.912;2022-08-06T00:57:39;4.47;;;1.33;;
18596;SDS011;9428;50.950;6.912;2022-08-06T01:00:26;3.15;;;1.38;;
18596;SDS011;9428;50.950;6.912;2022-08-06T01:03:13;8.18;;;1.70;;
18596;SDS011;9428;50.950;6.912;2022-08-06T01:06:02;4.55;;;1.63;;
18596;SDS011;9428;50.950;6.912;2022-08-06T01:08:50;4.13;;;1.33;;
18596;SDS011;9428;50.950;6.912;2022-08-06T01:11:38;3.08;;;1.38;;
18596;SDS011;9428;50.950;6.912;2022-08-06T01:14:25;4.38;;;2.00;;
18596;SDS011;9428;50.950;6.912;2022-08-06T01:17:14;2.45;;;1.40;;
18596;SDS011;9428;50.950;6.912;2022-08-06T01:20:13;5.95;;;2.10;;
18596;SDS011;9428;50.950;6.912;2022-08-06T01:23:15;5.90;;;1.52;;
18596;SDS011;9428;50.950;6.912;2022-08-06T01:26:20;7.72;;;1.42;;
18596;SDS011;9428;50.950;6.912;2022-08-06T01:29:17;1.27;;;1.08;;
18596;SDS011;9428;50.950;6.912;2022-08-06T01:32:11;4.78;;;1.30;;
18596;SDS011;9428;50.950;6.912;2022-08-06T01:35:03;3.63;;;1.52;;
18596;SDS011;9428;50.950;6.912;2022-08-06T01:37:56;6.13;;;1.88;;
18596;SDS011;9428;50.950;6.912;2022-08-06T01:40:46;3.97;;;1.20;;
18596;SDS011;9428;50.950;6.912;2022-08-06T01:43:36;5.05;;;1.85;;
18596;SDS011;9428;50.950;6.912;2022-08-06T01:46:27;1.23;;;1.10;;
18596;SDS011;9428;50.950;6.912;2022-08-06T01:49:16;3.65;;;1.25;;
18596;SDS011;9428;50.950;6.912;2022-08-06T01:52:07;5.75;;;1.58;;
18596;SDS011;9428;50.950;6.912;2022-08-06T01:54:56;4.85;;;1.52;;
18596;SDS011;9428;50.950;6.912;2022-08-06T01:57:48;3.15;;;1.33;;
18596;SDS011;9428;50.950;6.912;2022-08-06T02:00:39;3.42;;;1.35;;
18596;SDS011;9428;50.950;6.912;2022-08-06T02:03:31;2.92;;;1.27;;
18596;SDS011;9428;50.950;6.912;2022-08-06T02:06:22;6.22;;;1.52;;
18596;SDS011;9428;50.950;6.912;2022-08-06T02:09:14;2.67;;;1.45;;
18596;SDS011;9428;50.950;6.912;2022-08-06T02:12:06;5.18;;;1.50;;
18596;SDS011;9428;50.950;6.912;2022-08-06T02:14:57;4.00;;;1.40;;
18596;SDS011;9428;50.950;6.912;2022-08-06T02:17:49;4.65;;;1.40;;
18596;SDS011;9428;50.950;6.912;2022-08-06T02:20:40;2.95;;;1.73;;
18596;SDS011;9428;50.950;6.912;2022-08-06T02:23:30;5.75;;;1.63;;
18596;SDS011;9428;50.950;6.912;2022-08-06T02:26:18;3.03;;;1.50;;
18596;SDS011;9428;50.950;6.912;2022-08-06T02:29:08;3.58;;;1.65;;
18596;SDS011;9428;50.950;6.912;2022-08-06T02:32:00;6.28;;;1.30;;
18596;SDS011;9428;50.950;6.912;2022-08-06T02:34:47;3.63;;;1.60;;
18596;SDS011;9428;50.950;6.912;2022-08-06T02:37:38;5.20;;;1.90;;
18596;SDS011;9428;50.950;6.912;2022-08-06T02:40:33;4.15;;;1.35;;
18596;SDS011;9428;50.950;6.912;2022-08-06T02:43:23;3.05;;;1.60;;
18596;SDS011;9428;50.950;6.912;2022-08-06T02:46:19;5.35;;;1.70;;
18596;SDS011;9428;50.950;6.912;2022-08-06T02:49:12;2.75;;;1.30;;
18596;SDS011;9428;50.950;6.912;2022-08-06T02:52:08;3.67;;;1.35;;
18596;SDS011;9428;50.950;6.912;2022-08-06T02:55:05;4.32;;;1.30;;
18596;SDS011;9428;50.950;6.912;2022-08-06T02:57:57;6.13;;;2.00;;
18596;SDS011;9428;50.950;6.912;2022-08-06T03:00:50;4.43;;;1.45;;
18596;SDS011;9428;50.950;6.912;2022-08-06T03:03:39;4.45;;;1.77;;
18596;SDS011;9428;50.950;6.912;2022-08-06T03:06:30;6.78;;;1.42;;
18596;SDS011;9428;50.950;6.912;2022-08-06T03:09:18;3.22;;;1.60;;
18596;SDS011;9428;50.950;6.912;2022-08-06T03:12:08;6.45;;;1.70;;
18596;SDS011;9428;50.950;6.912;2022-08-06T03:14:58;6.30;;;1.55;;
18596;SDS011;9428;50.950;6.912;2022-08-06T03:17:48;6.47;;;1.65;;
18596;SDS011;9428;50.950;6.912;2022-08-06T03:20:40;5.38;;;1.83;;
18596;SDS011;9428;50.950;6.912;2022-08-06T03:23:30;3.85;;;1.75;;
18596;SDS011;9428;50.950;6.912;2022-08-06T03:26:18;3.08;;;1.80;;
18596;SDS011;9428;50.950;6.912;2022-08-06T03:29:07;7.05;;;1.48;;
18596;SDS011;9428;50.950;6.912;2022-08-06T03:31:56;4.43;;;1.50;;
18596;SDS011;9428;50.950;6.912;2022-08-06T03:34:48;5.45;;;1.55;;
18596;SDS011;9428;50.950;6.912;2022-08-06T03:37:35;6.80;;;1.70;;
18596;SDS011;9428;50.950;6.912;2022-08-06T03:40:23;2.47;;;1.80;;
18596;SDS011;9428;50.950;6.912;2022-08-06T03:43:12;5.30;;;2.00;;
18596;SDS011;9428;50.950;6.912;2022-08-06T03:46:01;3.28;;;1.65;;
18596;SDS011;9428;50.950;6.912;2022-08-06T03:48:51;4.47;;;1.65;;
18596;SDS011;9428;50.950;6.912;2022-08-06T03:51:39;5.78;;;1.98;;
18596;SDS011;9428;50.950;6.912;2022-08-06T03:54:31;7.15;;;2.08;;
18596;SDS011;9428;50.950;6.912;2022-08-06T03:57:20;4.40;;;1.90;;
18596;SDS011;9428;50.950;6.912;2022-08-06T04:00:12;4.07;;;2.00;;
18596;SDS011;9428;50.950;6.912;2022-08-06T04:03:02;5.68;;;2.08;;
18596;SDS011;9428;50.950;6.912;2022-08-06T04:05:50;6.32;;;1.90;;
18596;SDS011;9428;50.950;6.912;2022-08-06T04:08:39;8.05;;;2.20;;
18596;SDS011;9428;50.950;6.912;2022-08-06T04:11:27;6.30;;;2.63;;
18596;SDS011;9428;50.950;6.912;2022-08-06T04:14:15;7.25;;;2.28;;
18596;SDS011;9428;50.950;6.912;2022-08-06T04:17:03;8.60;;;2.08;;
18596;SDS011;9428;50.950;6.912;2022-08-06T04:19:53;3.78;;;1.90;;
18596;SDS011;9428;50.950;6.912;2022-08-06T04:22:41;3.33;;;1.50;;
18596;SDS011;9428;50.950;6.912;2022-08-06T04:25:31;7.95;;;1.92;;
18596;SDS011;9428;50.950;6.912;2022-08-06T04:28:21;7.63;;;1.80;;
18596;SDS011;9428;50.950;6.912;2022-08-06T04:31:10;6.13;;;1.63;;
18596;SDS011;9428;50.950;6.912;2022-08-06T04:33:59;3.65;;;2.10;;
18596;SDS011;9428;50.950;6.912;2022-08-06T04:36:49;6.05;;;1.85;;
18596;SDS011;9428;50.950;6.912;2022-08-06T04:39:37;7.55;;;1.90;;
18596;SDS011;9428;50.950;6.912;2022-08-06T04:42:25;6.53;;;2.30;;
18596;SDS011;9428;50.950;6.912;2022-08-06T04:45:12;10.73;;;2.17;;
18596;SDS011;9428;50.950;6.912;2022-08-06T04:48:00;6.07;;;2.10;;
18596;SDS011;9428;50.950;6.912;2022-08-06T04:50:49;4.13;;;2.28;;
18596;SDS011;9428;50.950;6.912;2022-08-06T04:53:38;5.97;;;2.38;;
18596;SDS011;9428;50.950;6.912;2022-08-06T04:56:26;10.57;;;3.00;;
18596;SDS011;9428;50.950;6.912;2022-08-06T04:59:14;6.60;;;2.60;;
18596;SDS011;9428;50.950;6.912;2022-08-06T05:02:01;5.30;;;2.80;;
18596;SDS011;9428;50.950;6.912;2022-08-06T05:04:48;6.53;;;2.45;;
18596;SDS011;9428;50.950;6.912;2022-08-06T05:07:41;10.95;;;3.00;;
18596;SDS011;9428;50.950;6.912;2022-08-06T05:10:33;7.40;;;2.53;;
18596;SDS011;9428;50.950;6.912;2022-08-06T05:13:26;4.60;;;2.28;;
18596;SDS011;9428;50.950;6.912;2022-08-06T05:16:19;4.20;;;2.15;;
18596;SDS011;9428;50.950;6.912;2022-08-06T05:19:09;4.47;;;2.30;;
18596;SDS011;9428;50.950;6.912;2022-08-06T05:22:01;8.95;;;2.30;;
18596;SDS011;9428;50.950;6.912;2022-08-06T05:24:51;6.70;;;2.65;;
18596;SDS011;9428;50.950;6.912;2022-08-06T05:27:41;7.72;;;2.53;;
18596;SDS011;9428;50.950;6.912;2022-08-06T05:30:28;7.57;;;2.45;;
18596;SDS011;9428;50.950;6.912;2022-08-06T05:33:22;6.82;;;2.53;;
18596;SDS011;9428;50.950;6.912;2022-08-06T05:36:11;8.35;;;2.42;;
18596;SDS011;9428;50.950;6.912;2022-08-06T05:38:59;8.43;;;2.58;;
18596;SDS011;9428;50.950;6.912;2022-08-06T05:41:46;7.78;;;2.60;;
18596;SDS011;9428;50.950;6.912;2022-08-06T05:44:35;7.07;;;3.20;;
18596;SDS011;9428;50.950;6.912;2022-08-06T05:47:23;7.55;;;2.90;;
18596;SDS011;9428;50.950;6.912;2022-08-06T05:50:14;5.38;;;2.90;;
18596;SDS011;9428;50.950;6.912;2022-08-06T05:53:06;10.23;;;3.22;;
18596;SDS011;9428;50.950;6.912;2022-08-06T05:55:57;7.10;;;3.28;;
18596;SDS011;9428;50.950;6.912;2022-08-06T05:58:49;5.90;;;2.90;;
18596;SDS011;9428;50.950;6.912;2022-08-06T06:01:41;8.40;;;3.55;;
18596;SDS011;9428;50.950;6.912;2022-08-06T06:04:28;7.75;;;3.45;;
18596;SDS011;9428;50.950;6.912;2022-08-06T06:07:18;7.43;;;3.40;;
18596;SDS011;9428;50.950;6.912;2022-08-06T06:10:06;7.65;;;3.50;;
18596;SDS011;9428;50.950;6.912;2022-08-06T06:12:54;8.45;;;4.22;;
18596;SDS011;9428;50.950;6.912;2022-08-06T06:15:52;14.10;;;3.88;;
18596;SDS011;9428;50.950;6.912;2022-08-06T06:18:49;9.55;;;3.97;;
18596;SDS011;9428;50.950;6.912;2022-08-06T06:22:08;8.57;;;3.60;;
18596;SDS011;9428;50.950;6.912;2022-08-06T06:25:04;10.95;;;4.40;;
18596;SDS011;9428;50.950;6.912;2022-08-06T06:27:57;7.97;;;4.35;;
18596;SDS011;9428;50.950;6.912;2022-08-06T06:30:51;6.30;;;4.40;;
18596;SDS011;9428;50.950;6.912;2022-08-06T06:33:44;8.07;;;4.35;;
18596;SDS011;9428;50.950;6.912;2022-08-06T06:36:36;10.55;;;3.78;;
18596;SDS011;9428;50.950;6.912;2022-08-06T06:39:30;6.13;;;3.40;;
18596;SDS011;9428;50.950;6.912;2022-08-06T06:42:24;7.22;;;3.92;;
18596;SDS011;9428;50.950;6.912;2022-08-06T06:45:16;4.68;;;3.20;;
18596;SDS011;9428;50.950;6.912;2022-08-06T06:48:09;10.10;;;3.33;;
18596;SDS011;9428;50.950;6.912;2022-08-06T06:51:02;5.22;;;2.90;;
18596;SDS011;9428;50.950;6.912;2022-08-06T06:53:54;5.20;;;3.45;;
18596;SDS011;9428;50.950;6.912;2022-08-06T06:56:46;5.90;;;3.10;;
18596;SDS011;9428;50.950;6.912;2022-08-06T06:59:36;7.25;;;2.70;;
18596;SDS011;9428;50.950;6.912;2022-08-06T07:02:26;12.57;;;3.40;;
18596;SDS011;9428;50.950;6.912;2022-08-06T07:05:16;7.72;;;2.80;;
18596;SDS011;9428;50.950;6.912;2022-08-06T07:08:06;7.88;;;2.63;;
18596;SDS011;9428;50.950;6.912;2022-08-06T07:10:56;9.40;;;2.70;;
18596;SDS011;9428;50.950;6.912;2022-08-06T07:13:45;4.60;;;1.98;;
18596;SDS011;9428;50.950;6.912;2022-08-06T07:16:33;6.47;;;1.98;;
18596;SDS011;9428;50.950;6.912;2022-08-06T07:19:23;5.18;;;2.28;;
18596;SDS011;9428;50.950;6.912;2022-08-06T07:22:11;8.68;;;2.35;;
18596;SDS011;9428;50.950;6.912;2022-08-06T07:25:00;5.60;;;2.67;;
18596;SDS011;9428;50.950;6.912;2022-08-06T07:27:50;4.97;;;2.15;;
18596;SDS011;9428;50.950;6.912;2022-08-06T07:30:38;5.78;;;1.75;;
18596;SDS011;9428;50.950;6.912;2022-08-06T07:33:27;5.40;;;2.33;;
18596;SDS011;9428;50.950;6.912;2022-08-06T07:36:16;7.10;;;1.80;;
18596;SDS011;9428;50.950;6.912;2022-08-06T07:39:05;3.63;;;1.67;;
18596;SDS011;9428;50.950;6.912;2022-08-06T07:41:55;4.82;;;1.80;;
18596;SDS011;9428;50.950;6.912;2022-08-06T07:44:48;7.68;;;1.60;;
18596;SDS011;9428;50.950;6.912;2022-08-06T07:47:37;3.90;;;1.40;;
18596;SDS011;9428;50.950;6.912;2022-08-06T07:50:27;2.67;;;1.30;;
18596;SDS011;9428;50.950;6.912;2022-08-06T07:53:14;5.57;;;1.40;;
18596;SDS011;9428;50.950;6.912;2022-08-06T07:56:03;3.85;;;1.77;;
18596;SDS011;9428;50.950;6.912;2022-08-06T07:58:52;3.53;;;1.17;;
18596;SDS011;9428;50.950;6.912;2022-08-06T08:01:42;2.15;;;1.00;;
18596;SDS011;9428;50.950;6.912;2022-08-06T08:04:30;8.23;;;1.73;;
18596;SDS011;9428;50.950;6.912;2022-08-06T08:07:35;3.85;;;1.00;;
18596;SDS011;9428;50.950;6.912;2022-08-06T08:10:23;3.05;;;0.98;;
18596;SDS011;9428;50.950;6.912;2022-08-06T08:13:11;3.70;;;1.00;;
18596;SDS011;9428;50.950;6.912;2022-08-06T08:16:00;3.13;;;1.15;;
18596;SDS011;9428;50.950;6.912;2022-08-06T08:18:49;1.33;;;0.70;;
18596;SDS011;9428;50.950;6.912;2022-08-06T08:21:36;5.03;;;1.20;;
18596;SDS011;9428;50.950;6.912;2022-08-06T08:24:24;3.38;;;1.08;;
18596;SDS011;9428;50.950;6.912;2022-08-06T08:27:12;4.40;;;1.27;;
18596;SDS011;9428;50.950;6.912;2022-08-06T08:30:00;2.28;;;1.05;;
18596;SDS011;9428;50.950;6.912;2022-08-06T08:32:47;4.15;;;1.58;;
18596;SDS011;9428;50.950;6.912;2022-08-06T08:35:35;4.93;;;1.00;;
18596;SDS011;9428;50.950;6.912;2022-08-06T08:38:23;2.13;;;1.35;;
18596;SDS011;9428;50.950;6.912;2022-08-06T08:41:13;2.90;;;1.10;;
18596;SDS011;9428;50.950;6.912;2022-08-06T08:44:06;4.25;;;1.02;;
18596;SDS011;9428;50.950;6.912;2022-08-06T08:46:55;0.82;;;0.63;;
18596;SDS011;9428;50.950;6.912;2022-08-06T08:49:45;2.28;;;0.88;;
18596;SDS011;9428;50.950;6.912;2022-08-06T08:52:38;2.08;;;0.90;;
18596;SDS011;9428;50.950;6.912;2022-08-06T08:55:30;1.42;;;0.88;;
18596;SDS011;9428;50.950;6.912;2022-08-06T08:58:17;2.30;;;0.90;;
18596;SDS011;9428;50.950;6.912;2022-08-06T09:01:05;3.40;;;1.30;;
18596;SDS011;9428;50.950;6.912;2022-08-06T09:03:54;1.83;;;0.98;;
18596;SDS011;9428;50.950;6.912;2022-08-06T09:06:41;5.82;;;1.15;;
18596;SDS011;9428;50.950;6.912;2022-08-06T09:09:30;3.10;;;1.00;;
18596;SDS011;9428;50.950;6.912;2022-08-06T09:12:20;1.77;;;0.90;;
18596;SDS011;9428;50.950;6.912;2022-08-06T09:15:08;2.35;;;0.80;;
18596;SDS011;9428;50.950;6.912;2022-08-06T09:17:56;1.02;;;0.77;;
18596;SDS011;9428;50.950;6.912;2022-08-06T09:20:43;2.65;;;0.93;;
18596;SDS011;9428;50.950;6.912;2022-08-06T09:23:31;5.55;;;1.38;;
18596;SDS011;9428;50.950;6.912;2022-08-06T09:26:19;1.48;;;0.88;;
18596;SDS011;9428;50.950;6.912;2022-08-06T09:29:16;2.05;;;0.90;;
18596;SDS011;9428;50.950;6.912;2022-08-06T09:32:07;1.42;;;0.98;;
18596;SDS011;9428;50.950;6.912;2022-08-06T09:34:56;2.45;;;0.90;;
18596;SDS011;9428;50.950;6.912;2022-08-06T09:37:44;3.42;;;0.88;;
18596;SDS011;9428;50.950;6.912;2022-08-06T09:40:31;1.73;;;0.82;;
18596;SDS011;9428;50.950;6.912;2022-08-06T09:43:26;3.63;;;0.93;;
18596;SDS011;9428;50.950;6.912;2022-08-06T09:46:14;1.25;;;0.70;;
18596;SDS011;9428;50.950;6.912;2022-08-06T09:49:02;1.60;;;0.80;;
18596;SDS011;9428;50.950;6.912;2022-08-06T09:51:50;1.85;;;0.80;;
18596;SDS011;9428;50.950;6.912;2022-08-06T09:54:37;1.52;;;0.80;;
18596;SDS011;9428;50.950;6.912;2022-08-06T09:57:28;2.65;;;0.82;;
18596;SDS011;9428;50.950;6.912;2022-08-06T10:00:30;1.23;;;0.70;;
18596;SDS011;9428;50.950;6.912;2022-08-06T10:03:18;1.92;;;0.80;;
18596;SDS011;9428;50.950;6.912;2022-08-06T10:06:07;3.17;;;0.98;;
18596;SDS011;9428;50.950;6.912;2022-08-06T10:09:05;1.13;;;0.70;;
18596;SDS011;9428;50.950;6.912;2022-08-06T10:11:54;4.00;;;1.08;;
18596;SDS011;9428;50.950;6.912;2022-08-06T10:14:43;1.85;;;0.70;;
18596;SDS011;9428;50.950;6.912;2022-08-06T10:17:31;3.67;;;0.80;;
18596;SDS011;9428;50.950;6.912;2022-08-06T10:20:18;2.00;;;1.02;;
18596;SDS011;9428;50.950;6.912;2022-08-06T10:23:08;1.42;;;0.65;;
18596;SDS011;9428;50.950;6.912;2022-08-06T10:25:55;0.93;;;0.70;;
18596;SDS011;9428;50.950;6.912;2022-08-06T10:28:43;2.53;;;0.68;;
18596;SDS011;9428;50.950;6.912;2022-08-06T10:31:32;0.95;;;0.57;;
18596;SDS011;9428;50.950;6.912;2022-08-06T10:34:24;1.58;;;0.60;;
18596;SDS011;9428;50.950;6.912;2022-08-06T10:37:13;1.35;;;0.63;;
18596;SDS011;9428;50.950;6.912;2022-08-06T10:40:03;1.13;;;0.63;;
18596;SDS011;9428;50.950;6.912;2022-08-06T10:42:51;1.85;;;0.60;;
18596;SDS011;9428;50.950;6.912;2022-08-06T10:45:39;2.25;;;0.80;;
18596;SDS011;9428;50.950;6.912;2022-08-06T10:48:27;3.25;;;0.70;;
18596;SDS011;9428;50.950;6.912;2022-08-06T10:51:16;3.08;;;0.90;;
18596;SDS011;9428;50.950;6.912;2022-08-06T10:54:03;1.33;;;0.95;;
18596;SDS011;9428;50.950;6.912;2022-08-06T10:56:51;2.47;;;1.40;;
18596;SDS011;9428;50.950;6.912;2022-08-06T10:59:40;2.50;;;0.85;;
18596;SDS011;9428;50.950;6.912;2022-08-06T11:02:31;1.67;;;0.73;;
18596;SDS011;9428;50.950;6.912;2022-08-06T11:05:25;1.75;;;0.70;;
18596;SDS011;9428;50.950;6.912;2022-08-06T11:08:19;1.52;;;0.85;;
18596;SDS011;9428;50.950;6.912;2022-08-06T11:11:25;2.00;;;0.70;;
18596;SDS011;9428;50.950;6.912;2022-08-06T11:14:26;2.03;;;0.75;;
18596;SDS011;9428;50.950;6.912;2022-08-06T11:17:13;2.67;;;0.70;;
18596;SDS011;9428;50.950;6.912;2022-08-06T11:20:01;1.98;;;0.60;;
18596;SDS011;9428;50.950;6.912;2022-08-06T11:22:48;2.83;;;0.70;;
18596;SDS011;9428;50.950;6.912;2022-08-06T11:25:38;1.55;;;0.70;;
18596;SDS011;9428;50.950;6.912;2022-08-06T11:31:47;1.30;;;0.63;;
18596;SDS011;9428;50.950;6.912;2022-08-06T11:34:40;1.40;;;0.63;;
18596;SDS011;9428;50.950;6.912;2022-08-06T11:37:43;1.40;;;0.73;;
18596;SDS011;9428;50.950;6.912;2022-08-06T11:43:47;1.10;;;0.80;;
18596;SDS011;9428;50.950;6.912;2022-08-06T11:46:50;1.48;;;0.73;;
18596;SDS011;9428;50.950;6.912;2022-08-06T11:49:56;1.58;;;0.70;;
18596;SDS011;9428;50.950;6.912;2022-08-06T11:52:46;3.45;;;0.90;;
18596;SDS011;9428;50.950;6.912;2022-08-06T11:55:33;1.10;;;0.77;;
18596;SDS011;9428;50.950;6.912;2022-08-06T12:02:01;1.23;;;0.80;;
18596;SDS011;9428;50.950;6.912;2022-08-06T12:04:49;1.27;;;0.77;;
18596;SDS011;9428;50.950;6.912;2022-08-06T12:07:37;3.00;;;0.60;;
18596;SDS011;9428;50.950;6.912;2022-08-06T12:10:24;1.83;;;0.85;;
18596;SDS011;9428;50.950;6.912;2022-08-06T12:13:36;1.90;;;0.85;;
18596;SDS011;9428;50.950;6.912;2022-08-06T12:16:25;0.77;;;0.70;;
18596;SDS011;9428;50.950;6.912;2022-08-06T12:19:16;1.67;;;0.55;;
18596;SDS011;9428;50.950;6.912;2022-08-06T12:22:04;1.02;;;0.60;;
18596;SDS011;9428;50.950;6.912;2022-08-06T12:24:53;1.65;;;1.00;;
18596;SDS011;9428;50.950;6.912;2022-08-06T12:27:42;4.75;;;2.72;;
18596;SDS011;9428;50.950;6.912;2022-08-06T12:30:40;2.17;;;0.95;;
18596;SDS011;9428;50.950;6.912;2022-08-06T12:33:27;2.00;;;1.25;;
18596;SDS011;9428;50.950;6.912;2022-08-06T12:36:15;3.83;;;2.22;;
18596;SDS011;9428;50.950;6.912;2022-08-06T12:39:06;2.40;;;1.10;;
18596;SDS011;9428;50.950;6.912;2022-08-06T12:41:53;1.85;;;0.93;;
18596;SDS011;9428;50.950;6.912;2022-08-06T12:44:41;1.10;;;0.60;;
18596;SDS011;9428;50.950;6.912;2022-08-06T12:47:29;1.27;;;0.77;;
18596;SDS011;9428;50.950;6.912;2022-08-06T12:50:17;0.95;;;0.70;;
18596;SDS011;9428;50.950;6.912;2022-08-06T12:53:05;9.38;;;4.45;;
18596;SDS011;9428;50.950;6.912;2022-08-06T12:55:55;0.93;;;0.60;;
18596;SDS011;9428;50.950;6.912;2022-08-06T12:58:43;2.33;;;0.70;;
18596;SDS011;9428;50.950;6.912;2022-08-06T13:01:32;0.93;;;0.63;;
18596;SDS011;9428;50.950;6.912;2022-08-06T13:04:22;0.80;;;0.68;;
18596;SDS011;9428;50.950;6.912;2022-08-06T13:07:11;1.33;;;0.63;;
18596;SDS011;9428;50.950;6.912;2022-08-06T13:09:58;0.60;;;0.60;;
18596;SDS011;9428;50.950;6.912;2022-08-06T13:12:52;0.60;;;0.60;;
18596;SDS011;9428;50.950;6.912;2022-08-06T13:15:39;3.13;;;1.13;;
18596;SDS011;9428;50.950;6.912;2022-08-06T13:18:27;4.38;;;1.52;;
18596;SDS011;9428;50.950;6.912;2022-08-06T13:21:16;2.05;;;1.35;;
18596;SDS011;9428;50.950;6.912;2022-08-06T13:24:05;2.05;;;1.30;;
18596;SDS011;9428;50.950;6.912;2022-08-06T13:26:54;1.88;;;1.27;;
18596;SDS011;9428;50.950;6.912;2022-08-06T13:29:58;1.10;;;0.50;;
18596;SDS011;9428;50.950;6.912;2022-08-06T13:32:47;0.75;;;0.43;;
18596;SDS011;9428;50.950;6.912;2022-08-06T13:35:34;1.95;;;0.80;;
18596;SDS011;9428;50.950;6.912;2022-08-06T13:38:29;0.55;;;0.50;;
18596;SDS011;9428;50.950;6.912;2022-08-06T13:41:23;1.17;;;0.50;;
18596;SDS011;9428;50.950;6.912;2022-08-06T13:44:25;1.65;;;0.70;;
18596;SDS011;9428;50.950;6.912;2022-08-06T13:47:13;0.45;;;0.45;;
18596;SDS011;9428;50.950;6.912;2022-08-06T13:50:12;1.25;;;0.50;;
18596;SDS011;9428;50.950;6.912;2022-08-06T13:52:59;0.60;;;0.50;;
18596;SDS011;9428;50.950;6.912;2022-08-06T13:55:47;2.20;;;0.80;;
18596;SDS011;9428;50.950;6.912;2022-08-06T13:58:35;3.05;;;0.70;;
18596;SDS011;9428;50.950;6.912;2022-08-06T14:01:22;2.08;;;0.63;;
18596;SDS011;9428;50.950;6.912;2022-08-06T14:04:09;0.98;;;0.65;;
18596;SDS011;9428;50.950;6.912;2022-08-06T14:06:57;1.85;;;0.80;;
18596;SDS011;9428;50.950;6.912;2022-08-06T14:09:45;0.77;;;0.50;;
18596;SDS011;9428;50.950;6.912;2022-08-06T14:12:34;1.58;;;0.52;;
18596;SDS011;9428;50.950;6.912;2022-08-06T14:15:21;0.85;;;0.57;;
18596;SDS011;9428;50.950;6.912;2022-08-06T14:18:08;1.00;;;0.80;;
18596;SDS011;9428;50.950;6.912;2022-08-06T14:20:55;1.45;;;0.52;;
18596;SDS011;9428;50.950;6.912;2022-08-06T14:23:43;0.85;;;0.73;;
18596;SDS011;9428;50.950;6.912;2022-08-06T14:26:30;0.68;;;0.63;;
18596;SDS011;9428;50.950;6.912;2022-08-06T14:29:18;1.33;;;0.60;;
18596;SDS011;9428;50.950;6.912;2022-08-06T14:32:06;0.88;;;0.70;;
18596;SDS011;9428;50.950;6.912;2022-08-06T14:34:53;1.25;;;0.77;;
18596;SDS011;9428;50.950;6.912;2022-08-06T14:37:41;1.35;;;0.60;;
18596;SDS011;9428;50.950;6.912;2022-08-06T14:40:29;0.60;;;0.60;;
18596;SDS011;9428;50.950;6.912;2022-08-06T14:43:34;3.10;;;0.80;;
18596;SDS011;9428;50.950;6.912;2022-08-06T14:46:40;1.45;;;0.75;;
18596;SDS011;9428;50.950;6.912;2022-08-06T14:49:27;1.75;;;0.60;;
18596;SDS011;9428;50.950;6.912;2022-08-06T14:52:15;2.28;;;0.50;;
18596;SDS011;9428;50.950;6.912;2022-08-06T14:55:02;1.60;;;0.60;;
18596;SDS011;9428;50.950;6.912;2022-08-06T14:57:50;3.00;;;0.90;;
18596;SDS011;9428;50.950;6.912;2022-08-06T15:00:37;3.13;;;0.63;;
18596;SDS011;9428;50.950;6.912;2022-08-06T15:03:26;2.05;;;0.80;;
18596;SDS011;9428;50.950;6.912;2022-08-06T15:06:14;3.22;;;0.77;;
18596;SDS011;9428;50.950;6.912;2022-08-06T15:09:01;1.30;;;0.70;;
18596;SDS011;9428;50.950;6.912;2022-08-06T15:11:48;3.92;;;0.95;;
18596;SDS011;9428;50.950;6.912;2022-08-06T15:14:36;1.55;;;0.73;;
18596;SDS011;9428;50.950;6.912;2022-08-06T15:17:23;1.20;;;0.70;;
18596;SDS011;9428;50.950;6.912;2022-08-06T15:20:11;1.50;;;0.80;;
18596;SDS011;9428;50.950;6.912;2022-08-06T15:22:58;1.42;;;0.60;;
18596;SDS011;9428;50.950;6.912;2022-08-06T15:25:46;0.80;;;0.70;;
18596;SDS011;9428;50.950;6.912;2022-08-06T15:28:33;3.42;;;0.70;;
18596;SDS011;9428;50.950;6.912;2022-08-06T15:31:20;1.33;;;0.75;;
18596;SDS011;9428;50.950;6.912;2022-08-06T15:34:07;1.30;;;0.73;;
18596;SDS011;9428;50.950;6.912;2022-08-06T15:36:56;9.57;;;6.70;;
18596;SDS011;9428;50.950;6.912;2022-08-06T15:39:43;2.38;;;1.30;;
18596;SDS011;9428;50.950;6.912;2022-08-06T15:42:30;0.60;;;0.60;;
18596;SDS011;9428;50.950;6.912;2022-08-06T15:45:18;1.13;;;0.70;;
18596;SDS011;9428;50.950;6.912;2022-08-06T15:48:07;1.40;;;0.68;;
18596;SDS011;9428;50.950;6.912;2022-08-06T15:50:54;0.75;;;0.68;;
18596;SDS011;9428;50.950;6.912;2022-08-06T15:53:43;1.10;;;0.68;;
18596;SDS011;9428;50.950;6.912;2022-08-06T15:56:30;1.58;;;0.90;;
18596;SDS011;9428;50.950;6.912;2022-08-06T15:59:18;2.65;;;1.40;;
18596;SDS011;9428;50.950;6.912;2022-08-06T16:02:05;2.03;;;0.70;;
18596;SDS011;9428;50.950;6.912;2022-08-06T16:04:52;3.63;;;1.45;;
18596;SDS011;9428;50.950;6.912;2022-08-06T16:07:40;3.67;;;2.65;;
18596;SDS011;9428;50.950;6.912;2022-08-06T16:10:28;9.65;;;4.80;;
18596;SDS011;9428;50.950;6.912;2022-08-06T16:13:16;2.30;;;1.13;;
18596;SDS011;9428;50.950;6.912;2022-08-06T16:16:04;1.30;;;0.70;;
18596;SDS011;9428;50.950;6.912;2022-08-06T16:18:51;2.50;;;1.00;;
18596;SDS011;9428;50.950;6.912;2022-08-06T16:21:39;4.07;;;1.45;;
18596;SDS011;9428;50.950;6.912;2022-08-06T16:24:26;2.35;;;0.75;;
18596;SDS011;9428;50.950;6.912;2022-08-06T16:27:14;1.45;;;0.80;;
18596;SDS011;9428;50.950;6.912;2022-08-06T16:30:03;3.00;;;1.20;;
18596;SDS011;9428;50.950;6.912;2022-08-06T16:32:50;1.20;;;0.82;;
18596;SDS011;9428;50.950;6.912;2022-08-06T16:35:38;1.00;;;0.60;;
18596;SDS011;9428;50.950;6.912;2022-08-06T16:38:26;2.33;;;1.05;;
18596;SDS011;9428;50.950;6.912;2022-08-06T16:41:13;0.73;;;0.70;;
18596;SDS011;9428;50.950;6.912;2022-08-06T16:44:02;1.15;;;0.85;;
18596;SDS011;9428;50.950;6.912;2022-08-06T16:46:49;1.27;;;1.10;;
18596;SDS011;9428;50.950;6.912;2022-08-06T16:49:36;3.28;;;1.75;;
18596;SDS011;9428;50.950;6.912;2022-08-06T16:52:24;0.60;;;0.60;;
18596;SDS011;9428;50.950;6.912;2022-08-06T16:55:11;1.33;;;0.90;;
18596;SDS011;9428;50.950;6.912;2022-08-06T16:57:59;1.05;;;0.90;;
18596;SDS011;9428;50.950;6.912;2022-08-06T17:00:53;3.00;;;1.50;;
18596;SDS011;9428;50.950;6.912;2022-08-06T17:03:40;1.17;;;0.70;;
18596;SDS011;9428;50.950;6.912;2022-08-06T17:06:28;2.28;;;1.17;;
18596;SDS011;9428;50.950;6.912;2022-08-06T17:09:16;2.45;;;0.93;;
18596;SDS011;9428;50.950;6.912;2022-08-06T17:12:05;0.65;;;0.45;;
18596;SDS011;9428;50.950;6.912;2022-08-06T17:14:52;1.33;;;0.70;;
18596;SDS011;9428;50.950;6.912;2022-08-06T17:17:41;1.38;;;0.70;;
18596;SDS011;9428;50.950;6.912;2022-08-06T17:20:29;2.00;;;0.80;;
18596;SDS011;9428;50.950;6.912;2022-08-06T17:23:16;0.57;;;0.55;;
18596;SDS011;9428;50.950;6.912;2022-08-06T17:26:04;0.60;;;0.60;;
18596;SDS011;9428;50.950;6.912;2022-08-06T17:28:51;0.77;;;0.50;;